createdAt,value
2022-12-25T00:00:20.957Z,18.80
2022-12-25T00:02:49.533Z,15.00
2022-12-25T00:05:17.750Z,13.10
2022-12-25T00:07:46.965Z,17.30
2022-12-25T00:10:14.854Z,15.60
2022-12-25T00:12:42.884Z,14.30
2022-12-25T00:15:11.861Z,16.93
2022-12-25T00:17:39.709Z,17.57
2022-12-25T00:20:09.883Z,18.70
2022-12-25T00:22:37.893Z,14.47
2022-12-25T00:25:08.637Z,11.63
2022-12-25T00:27:37.674Z,16.27
2022-12-25T00:30:07.710Z,14.23
2022-12-25T00:32:37.320Z,14.57
2022-12-25T00:35:06.176Z,12.23
2022-12-25T00:37:34.053Z,15.33
2022-12-25T00:40:01.990Z,17.17
2022-12-25T00:42:30.226Z,16.67
2022-12-25T00:44:58.146Z,15.03
2022-12-25T00:47:26.345Z,19.17
2022-12-25T00:49:54.223Z,18.43
2022-12-25T00:52:22.099Z,19.53
2022-12-25T00:54:50.026Z,16.43
2022-12-25T00:57:18.044Z,18.77
2022-12-25T00:59:47.246Z,20.60
2022-12-25T01:02:24.340Z,21.63
2022-12-25T01:04:54.761Z,21.90
2022-12-25T01:07:25.314Z,15.57
2022-12-25T01:10:10.807Z,18.40
2022-12-25T01:12:41.834Z,16.00
2022-12-25T01:15:14.086Z,19.30
2022-12-25T01:17:42.964Z,13.63
2022-12-25T01:20:13.886Z,15.80
2022-12-25T01:22:41.921Z,17.17
2022-12-25T01:25:11.584Z,18.40
2022-12-25T01:27:39.723Z,17.33
2022-12-25T01:30:09.536Z,22.17
2022-12-25T01:32:38.750Z,42.60
2022-12-25T01:35:07.789Z,24.33
2022-12-25T01:37:35.953Z,21.40
2022-12-25T01:40:04.145Z,25.73
2022-12-25T01:42:32.029Z,25.80
2022-12-25T01:45:34.738Z,17.77
2022-12-25T01:48:10.717Z,12.00
2022-12-25T01:50:43.998Z,12.63
2022-12-25T01:53:12.853Z,19.73
2022-12-25T01:55:45.386Z,19.87
2022-12-25T01:58:13.708Z,14.67
2022-12-25T02:00:41.708Z,12.20
2022-12-25T02:03:11.072Z,16.87
2022-12-25T02:05:40.299Z,20.70
2022-12-25T02:08:13.546Z,25.47
2022-12-25T02:10:45.576Z,39.60
2022-12-25T02:13:17.231Z,61.80
2022-12-25T02:15:58.033Z,38.37
2022-12-25T02:18:38.693Z,25.33
2022-12-25T02:21:53.767Z,19.57
2022-12-25T02:24:48.281Z,14.17
2022-12-25T02:27:33.096Z,19.70
2022-12-25T02:30:06.961Z,15.83
2022-12-25T02:32:46.329Z,13.43
2022-12-25T02:35:22.163Z,14.33
2022-12-25T02:38:02.513Z,14.80
2022-12-25T02:40:35.150Z,15.90
2022-12-25T02:43:22.015Z,14.47
2022-12-25T02:46:15.441Z,14.77
2022-12-25T02:49:21.547Z,12.47
2022-12-25T02:52:14.069Z,15.80
2022-12-25T02:55:09.154Z,17.70
2022-12-25T02:58:00.225Z,13.77
2022-12-25T03:00:45.735Z,16.87
2022-12-25T03:03:35.040Z,15.03
2022-12-25T03:06:22.791Z,14.27
2022-12-25T03:09:16.576Z,18.40
2022-12-25T03:11:47.388Z,14.33
2022-12-25T03:14:47.872Z,19.40
2022-12-25T03:17:16.611Z,14.10
2022-12-25T03:20:03.591Z,13.43
2022-12-25T03:22:51.234Z,13.30
2022-12-25T03:25:38.290Z,11.10
2022-12-25T03:28:07.750Z,9.93
2022-12-25T03:31:09.854Z,12.27
2022-12-25T03:34:11.895Z,14.50
2022-12-25T03:37:03.877Z,11.63
2022-12-25T03:40:08.380Z,13.57
2022-12-25T03:43:02.821Z,12.73
2022-12-25T03:46:00.612Z,16.83
2022-12-25T03:48:51.444Z,18.57
2022-12-25T03:51:44.553Z,10.13
2022-12-25T03:54:38.015Z,10.53
2022-12-25T03:57:24.451Z,9.27
2022-12-25T04:00:09.979Z,8.33
2022-12-25T04:02:56.649Z,11.60
2022-12-25T04:05:41.922Z,13.33
2022-12-25T04:08:27.379Z,15.53
2022-12-25T04:11:13.914Z,9.53
2022-12-25T04:14:01.647Z,22.27
2022-12-25T04:16:47.068Z,14.03
2022-12-25T04:19:32.594Z,11.43
2022-12-25T04:22:18.059Z,9.73
2022-12-25T04:25:03.648Z,15.63
2022-12-25T04:27:50.824Z,11.63
2022-12-25T04:30:36.426Z,12.77
2022-12-25T04:33:21.860Z,14.23
2022-12-25T04:36:07.959Z,13.60
2022-12-25T04:38:36.583Z,11.93
2022-12-25T04:41:04.885Z,11.67
2022-12-25T04:43:34.158Z,9.23
2022-12-25T04:46:03.307Z,11.17
2022-12-25T04:48:35.926Z,11.13
2022-12-25T04:51:16.658Z,13.13
2022-12-25T04:53:46.351Z,12.80
2022-12-25T04:56:15.586Z,13.93
2022-12-25T04:58:45.982Z,13.03
2022-12-25T05:01:15.332Z,11.37
2022-12-25T05:03:43.571Z,11.10
2022-12-25T05:06:11.604Z,11.70
2022-12-25T05:08:39.604Z,9.57
2022-12-25T05:11:10.089Z,13.70
2022-12-25T05:13:39.011Z,11.57
2022-12-25T05:16:11.002Z,14.93
2022-12-25T05:18:39.152Z,7.87
2022-12-25T05:21:08.340Z,9.60
2022-12-25T05:23:36.476Z,12.53
2022-12-25T05:26:06.996Z,15.53
2022-12-25T05:28:35.444Z,11.47
2022-12-25T05:31:03.958Z,10.47
2022-12-25T05:33:33.805Z,13.93
2022-12-25T05:36:03.942Z,18.37
2022-12-25T05:38:32.176Z,13.83
2022-12-25T05:41:03.504Z,12.33
2022-12-25T05:43:31.789Z,13.23
2022-12-25T05:46:05.734Z,12.83
2022-12-25T05:48:36.687Z,10.47
2022-12-25T05:51:06.906Z,9.30
2022-12-25T05:53:35.592Z,10.43
2022-12-25T05:56:05.761Z,12.20
2022-12-25T05:58:36.229Z,12.77
2022-12-25T06:01:04.686Z,9.90
2022-12-25T06:03:34.094Z,7.57
2022-12-25T06:06:04.208Z,12.40
2022-12-25T06:08:32.070Z,14.83
2022-12-25T06:10:59.923Z,11.90
2022-12-25T06:13:27.781Z,13.80
2022-12-25T06:15:55.671Z,11.47
2022-12-25T06:18:23.603Z,11.83
2022-12-25T06:20:53.046Z,13.63
2022-12-25T06:23:20.974Z,11.43
2022-12-25T06:25:48.882Z,10.47
2022-12-25T06:28:16.745Z,11.60
2022-12-25T06:30:44.896Z,15.63
2022-12-25T06:33:12.820Z,15.03
2022-12-25T06:35:41.085Z,15.43
2022-12-25T06:38:10.300Z,12.77
2022-12-25T06:40:38.483Z,12.73
2022-12-25T06:43:06.358Z,11.70
2022-12-25T06:45:36.265Z,14.73
2022-12-25T06:48:04.896Z,20.43
2022-12-25T06:50:32.768Z,11.93
2022-12-25T06:53:00.646Z,14.37
2022-12-25T06:55:29.819Z,12.17
2022-12-25T06:57:57.735Z,14.10
2022-12-25T07:00:25.604Z,15.63
2022-12-25T07:02:53.674Z,16.23
2022-12-25T07:05:21.648Z,13.70
2022-12-25T07:07:49.496Z,14.33
2022-12-25T07:10:17.608Z,15.70
2022-12-25T07:12:46.849Z,16.93
2022-12-25T07:15:14.821Z,20.87
2022-12-25T07:17:43.541Z,20.63
2022-12-25T07:20:11.774Z,19.60
2022-12-25T07:22:39.600Z,15.63
2022-12-25T07:25:08.634Z,15.03
2022-12-25T07:27:36.511Z,14.53
2022-12-25T07:30:07.628Z,13.40
2022-12-25T07:32:35.890Z,18.70
2022-12-25T07:35:03.784Z,9.97
2022-12-25T07:37:31.637Z,8.70
2022-12-25T07:39:59.512Z,18.23
2022-12-25T07:42:27.406Z,10.37
2022-12-25T07:44:55.639Z,16.17
2022-12-25T07:47:24.924Z,13.00
2022-12-25T07:49:52.776Z,11.43
2022-12-25T07:52:20.620Z,10.23
2022-12-25T07:54:48.495Z,10.97
2022-12-25T07:57:16.356Z,18.03
2022-12-25T07:59:44.522Z,11.23
2022-12-25T08:02:13.166Z,11.30
2022-12-25T08:04:43.189Z,10.93
2022-12-25T08:07:11.019Z,11.07
2022-12-25T08:09:38.864Z,13.67
2022-12-25T08:12:07.394Z,12.30
2022-12-25T08:14:35.269Z,13.00
2022-12-25T08:17:03.229Z,9.03
2022-12-25T08:19:31.510Z,13.00
2022-12-25T08:22:03.470Z,10.97
2022-12-25T08:24:31.644Z,13.10
2022-12-25T08:26:59.483Z,11.47
2022-12-25T08:29:28.905Z,13.67
2022-12-25T08:31:57.088Z,6.90
2022-12-25T08:34:25.046Z,8.53
2022-12-25T08:36:53.043Z,9.03
2022-12-25T08:39:22.263Z,10.00
2022-12-25T08:41:50.107Z,9.07
2022-12-25T08:44:18.042Z,9.73
2022-12-25T08:46:46.254Z,10.47
2022-12-25T08:49:14.128Z,11.07
2022-12-25T08:51:42.030Z,10.77
2022-12-25T08:54:10.231Z,7.10
2022-12-25T08:56:39.403Z,13.83
2022-12-25T08:59:07.376Z,9.27
2022-12-25T09:01:35.365Z,12.07
2022-12-25T09:04:03.426Z,8.87
2022-12-25T09:06:31.640Z,10.80
2022-12-25T09:08:59.556Z,7.97
2022-12-25T09:11:27.417Z,13.87
2022-12-25T09:13:56.628Z,8.80
2022-12-25T09:16:24.754Z,11.23
2022-12-25T09:18:53.181Z,10.37
2022-12-25T09:21:21.357Z,11.93
2022-12-25T09:23:49.402Z,10.43
2022-12-25T09:26:19.455Z,7.50
2022-12-25T09:28:51.918Z,10.07
2022-12-25T09:31:23.824Z,8.00
2022-12-25T09:33:52.241Z,9.43
2022-12-25T09:36:21.283Z,9.03
2022-12-25T09:38:49.213Z,9.33
2022-12-25T09:41:23.905Z,10.50
2022-12-25T09:43:58.673Z,7.57
2022-12-25T09:46:37.779Z,9.03
2022-12-25T09:49:16.260Z,7.30
2022-12-25T09:51:49.482Z,14.83
2022-12-25T09:54:23.525Z,7.80
2022-12-25T09:56:51.682Z,7.80
2022-12-25T09:59:27.716Z,6.97
2022-12-25T10:02:25.408Z,8.73
2022-12-25T10:05:14.048Z,7.73
2022-12-25T10:07:52.641Z,8.30
2022-12-25T10:10:45.606Z,8.73
2022-12-25T10:13:37.851Z,9.27
2022-12-25T10:16:25.146Z,7.93
2022-12-25T10:19:11.453Z,8.60
2022-12-25T10:21:39.704Z,9.20
2022-12-25T10:24:25.628Z,6.23
2022-12-25T10:26:57.349Z,6.93
2022-12-25T10:29:25.226Z,4.97
2022-12-25T10:31:56.702Z,6.63
2022-12-25T10:34:27.682Z,6.77
2022-12-25T10:36:56.006Z,3.80
2022-12-25T10:39:26.716Z,4.80
2022-12-25T10:42:34.413Z,8.87
2022-12-25T10:45:06.148Z,6.57
2022-12-25T10:47:38.244Z,4.27
2022-12-25T10:50:19.896Z,5.90
2022-12-25T10:52:57.004Z,5.60
2022-12-25T10:55:28.863Z,7.03
2022-12-25T10:57:58.570Z,8.60
2022-12-25T11:00:30.114Z,9.47
2022-12-25T11:02:58.940Z,7.53
2022-12-25T11:05:32.584Z,7.80
2022-12-25T11:08:03.394Z,5.60
2022-12-25T11:10:35.965Z,4.53
2022-12-25T11:13:07.535Z,5.87
2022-12-25T11:15:39.990Z,7.07
2022-12-25T11:18:21.919Z,4.37
2022-12-25T11:20:53.243Z,6.37
2022-12-25T11:23:25.094Z,6.03
2022-12-25T11:25:58.193Z,6.80
2022-12-25T11:28:27.584Z,6.77
2022-12-25T11:31:03.968Z,6.97
2022-12-25T11:33:38.287Z,4.87
2022-12-25T11:36:20.870Z,6.17
2022-12-25T11:38:48.913Z,5.90
2022-12-25T11:41:23.251Z,3.23
2022-12-25T11:43:59.273Z,4.00
2022-12-25T11:46:34.547Z,5.53
2022-12-25T11:49:08.339Z,3.33
2022-12-25T11:51:42.963Z,3.50
2022-12-25T11:54:23.959Z,3.97
2022-12-25T11:56:52.786Z,5.30
2022-12-25T11:59:28.540Z,7.17
2022-12-25T12:02:01.089Z,6.53
2022-12-25T12:04:42.070Z,4.07
2022-12-25T12:07:22.672Z,4.20
2022-12-25T12:10:03.825Z,6.23
2022-12-25T12:12:49.009Z,7.53
2022-12-25T12:15:29.500Z,6.27
2022-12-25T12:18:09.520Z,5.17
2022-12-25T12:20:38.611Z,4.03
2022-12-25T12:23:17.857Z,4.00
2022-12-25T12:25:46.445Z,7.00
2022-12-25T12:28:23.362Z,7.90
2022-12-25T12:31:03.854Z,7.20
2022-12-25T12:33:38.904Z,11.13
2022-12-25T12:36:11.883Z,7.90
2022-12-25T12:38:43.533Z,5.33
2022-12-25T12:41:14.840Z,4.67
2022-12-25T12:43:48.406Z,9.20
2022-12-25T12:46:26.123Z,6.73
2022-12-25T12:49:12.375Z,9.37
2022-12-25T12:51:40.305Z,7.63
2022-12-25T12:54:21.780Z,5.83
2022-12-25T12:57:05.358Z,6.30
2022-12-25T12:59:43.410Z,6.10
2022-12-25T13:02:57.511Z,5.40
2022-12-25T13:05:38.334Z,7.40
2022-12-25T13:08:28.599Z,5.97
2022-12-25T13:11:14.437Z,9.10
2022-12-25T13:13:46.016Z,5.70
2022-12-25T13:16:25.913Z,7.13
2022-12-25T13:18:58.142Z,5.60
2022-12-25T13:21:34.020Z,6.77
2022-12-25T13:24:07.222Z,4.87
2022-12-25T13:26:36.443Z,4.67
2022-12-25T13:29:09.633Z,8.23
2022-12-25T13:31:42.309Z,5.40
2022-12-25T13:34:24.481Z,5.60
2022-12-25T13:36:52.450Z,6.33
2022-12-25T13:39:21.173Z,7.33
2022-12-25T13:42:10.267Z,8.00
2022-12-25T13:44:48.916Z,6.97
2022-12-25T13:47:23.932Z,4.53
2022-12-25T13:49:55.063Z,7.73
2022-12-25T13:52:29.600Z,5.43
2022-12-25T13:55:01.471Z,6.40
2022-12-25T13:57:36.950Z,4.70
2022-12-25T14:00:17.051Z,3.47
2022-12-25T14:02:47.296Z,7.37
2022-12-25T14:05:43.111Z,4.10
2022-12-25T14:08:17.058Z,4.17
2022-12-25T14:10:50.161Z,4.33
2022-12-25T14:13:25.023Z,6.23
2022-12-25T14:15:54.173Z,4.33
2022-12-25T14:18:25.153Z,3.07
2022-12-25T14:21:02.373Z,3.83
2022-12-25T14:23:42.632Z,2.20
2022-12-25T14:26:17.538Z,3.73
2022-12-25T14:28:52.320Z,3.70
2022-12-25T14:31:22.280Z,6.23
2022-12-25T14:33:52.069Z,7.03
2022-12-25T14:36:20.480Z,4.57
2022-12-25T14:38:59.039Z,3.37
2022-12-25T14:41:37.748Z,5.70
2022-12-25T14:44:32.087Z,3.40
2022-12-25T14:47:16.351Z,3.77
2022-12-25T14:49:45.230Z,3.07
2022-12-25T14:52:22.289Z,3.73
2022-12-25T14:54:55.742Z,4.57
2022-12-25T14:57:32.053Z,6.20
2022-12-25T15:00:08.027Z,5.83
2022-12-25T15:02:45.996Z,3.67
2022-12-25T15:05:31.965Z,5.23
2022-12-25T15:08:17.448Z,3.13
2022-12-25T15:11:02.688Z,4.40
2022-12-25T15:13:32.300Z,5.47
2022-12-25T15:16:10.213Z,5.20
2022-12-25T15:18:44.327Z,7.13
2022-12-25T15:21:19.423Z,5.40
2022-12-25T15:23:47.924Z,5.70
2022-12-25T15:26:16.647Z,3.50
2022-12-25T15:28:44.686Z,3.50
2022-12-25T15:31:22.970Z,5.17
2022-12-25T15:33:51.719Z,4.23
2022-12-25T15:36:20.024Z,3.87
2022-12-25T15:38:48.334Z,6.63
2022-12-25T15:41:35.000Z,5.80
2022-12-25T15:44:04.426Z,4.67
2022-12-25T15:46:34.904Z,4.10
2022-12-25T15:49:02.878Z,4.20
2022-12-25T15:51:30.952Z,5.07
2022-12-25T15:53:59.638Z,4.27
2022-12-25T15:56:28.549Z,7.47
2022-12-25T15:58:56.483Z,5.50
2022-12-25T16:01:24.425Z,4.50
2022-12-25T16:03:53.898Z,4.50
2022-12-25T16:06:21.802Z,6.10
2022-12-25T16:08:49.688Z,4.57
2022-12-25T16:11:17.558Z,4.77
2022-12-25T16:13:45.483Z,6.77
2022-12-25T16:16:13.780Z,7.13
2022-12-25T16:18:47.405Z,7.07
2022-12-25T16:21:21.597Z,4.97
2022-12-25T16:23:49.839Z,6.13
2022-12-25T16:26:18.022Z,5.73
2022-12-25T16:28:46.344Z,8.73
2022-12-25T16:31:14.260Z,8.17
2022-12-25T16:33:42.151Z,6.33
2022-12-25T16:36:10.317Z,5.50
2022-12-25T16:38:39.654Z,6.20
2022-12-25T16:41:09.178Z,6.73
2022-12-25T16:43:37.085Z,8.60
2022-12-25T16:46:11.038Z,9.50
2022-12-25T16:48:39.003Z,10.00
2022-12-25T16:51:10.967Z,11.77
2022-12-25T16:53:40.888Z,8.47
2022-12-25T16:56:10.670Z,9.47
2022-12-25T16:58:38.885Z,7.53
2022-12-25T17:01:08.970Z,10.70
2022-12-25T17:03:37.250Z,10.00
2022-12-25T17:06:13.333Z,6.70
2022-12-25T17:08:42.959Z,8.07
2022-12-25T17:11:11.779Z,12.40
2022-12-25T17:13:39.798Z,10.77
2022-12-25T17:16:24.805Z,9.07
2022-12-25T17:18:55.775Z,5.87
2022-12-25T17:21:23.921Z,8.83
2022-12-25T17:23:56.614Z,8.83
2022-12-25T17:26:29.559Z,9.10
2022-12-25T17:28:58.113Z,8.00
2022-12-25T17:31:26.076Z,6.03
2022-12-25T17:33:53.975Z,7.57
2022-12-25T17:36:23.230Z,7.50
2022-12-25T17:38:51.116Z,8.40
2022-12-25T17:41:21.307Z,11.53
2022-12-25T17:43:49.777Z,9.43
2022-12-25T17:46:20.748Z,8.87
2022-12-25T17:48:50.351Z,7.20
2022-12-25T17:51:23.621Z,7.27
2022-12-25T17:53:55.255Z,9.13
2022-12-25T17:56:25.931Z,5.33
2022-12-25T17:58:55.983Z,5.53
2022-12-25T18:01:25.946Z,4.17
2022-12-25T18:03:54.679Z,4.27
2022-12-25T18:06:25.857Z,5.50
2022-12-25T18:08:56.223Z,6.70
2022-12-25T18:11:32.580Z,5.00
2022-12-25T18:14:03.992Z,7.30
2022-12-25T18:16:36.229Z,8.53
2022-12-25T18:19:04.734Z,7.57
2022-12-25T18:21:33.287Z,6.43
2022-12-25T18:24:04.076Z,5.53
2022-12-25T18:26:34.157Z,6.23
2022-12-25T18:29:02.215Z,4.50
2022-12-25T18:31:31.064Z,6.07
2022-12-25T18:34:00.157Z,7.73
2022-12-25T18:36:30.359Z,5.87
2022-12-25T18:39:00.183Z,6.57
2022-12-25T18:41:30.189Z,6.77
2022-12-25T18:44:00.897Z,5.67
2022-12-25T18:46:29.491Z,5.00
2022-12-25T18:49:00.339Z,4.53
2022-12-25T18:51:34.918Z,6.43
2022-12-25T18:54:04.981Z,5.70
2022-12-25T18:56:33.329Z,7.90
2022-12-25T18:59:03.140Z,5.60
2022-12-25T19:01:31.144Z,6.63
2022-12-25T19:04:04.329Z,5.77
2022-12-25T19:06:33.371Z,4.80
2022-12-25T19:09:09.245Z,5.97
2022-12-25T19:11:44.003Z,6.30
2022-12-25T19:14:16.174Z,5.60
2022-12-25T19:16:44.916Z,7.13
2022-12-25T19:19:13.224Z,6.47
2022-12-25T19:21:41.481Z,6.17
2022-12-25T19:24:09.743Z,5.47
2022-12-25T19:26:37.683Z,5.93
2022-12-25T19:29:05.817Z,6.27
2022-12-25T19:31:37.071Z,5.87
2022-12-25T19:34:06.587Z,6.13
2022-12-25T19:36:34.820Z,4.90
2022-12-25T19:39:03.102Z,4.30
2022-12-25T19:41:31.259Z,5.13
2022-12-25T19:43:59.221Z,5.03
2022-12-25T19:46:30.548Z,5.23
2022-12-25T19:49:04.027Z,5.63
2022-12-25T19:51:34.952Z,6.53
2022-12-25T19:54:03.892Z,4.90
2022-12-25T19:56:32.048Z,6.57
2022-12-25T19:59:01.135Z,7.10
2022-12-25T20:01:30.443Z,5.03
2022-12-25T20:04:00.460Z,5.93
2022-12-25T20:06:32.198Z,4.97
2022-12-25T20:09:04.868Z,5.77
2022-12-25T20:11:35.047Z,7.40
2022-12-25T20:14:03.421Z,8.07
2022-12-25T20:16:31.384Z,5.90
2022-12-25T20:19:00.818Z,6.60
2022-12-25T20:21:29.795Z,4.10
2022-12-25T20:23:58.504Z,7.43
2022-12-25T20:26:30.645Z,7.17
2022-12-25T20:28:59.416Z,6.43
2022-12-25T20:31:31.328Z,6.27
2022-12-25T20:34:06.597Z,6.77
2022-12-25T20:36:37.782Z,5.23
2022-12-25T20:39:09.513Z,8.03
2022-12-25T20:41:41.284Z,6.83
2022-12-25T20:44:10.629Z,7.03
2022-12-25T20:46:38.548Z,6.10
2022-12-25T20:49:08.206Z,4.97
2022-12-25T20:51:36.173Z,6.73
2022-12-25T20:54:08.526Z,5.00
2022-12-25T20:56:37.508Z,4.43
2022-12-25T20:59:05.498Z,4.77
2022-12-25T21:01:33.582Z,6.20
2022-12-25T21:04:01.666Z,7.20
2022-12-25T21:06:30.898Z,7.33
2022-12-25T21:08:58.912Z,6.33
2022-12-25T21:11:31.244Z,6.90
2022-12-25T21:13:59.581Z,7.33
2022-12-25T21:16:28.368Z,6.27
2022-12-25T21:18:56.325Z,6.57
2022-12-25T21:21:24.291Z,7.47
2022-12-25T21:23:56.791Z,6.17
2022-12-25T21:26:28.247Z,7.10
2022-12-25T21:29:00.320Z,5.63
2022-12-25T21:31:29.634Z,4.13
2022-12-25T21:33:57.714Z,5.93
2022-12-25T21:36:29.175Z,5.80
2022-12-25T21:39:02.051Z,4.80
2022-12-25T21:41:32.049Z,6.00
2022-12-25T21:44:00.910Z,5.87
2022-12-25T21:46:30.066Z,7.43
2022-12-25T21:48:59.296Z,5.57
2022-12-25T21:51:47.978Z,5.97
2022-12-25T21:54:18.578Z,5.27
2022-12-25T21:56:48.839Z,4.50
2022-12-25T21:59:19.313Z,6.53
2022-12-25T22:01:48.644Z,4.97
2022-12-25T22:04:19.221Z,5.93
2022-12-25T22:07:05.994Z,6.53
2022-12-25T22:09:35.288Z,3.80
2022-12-25T22:12:21.568Z,8.47
2022-12-25T22:14:55.429Z,4.73
2022-12-25T22:17:45.059Z,4.93
2022-12-25T22:20:16.891Z,5.70
2022-12-25T22:22:45.490Z,6.53
2022-12-25T22:25:15.683Z,8.30
2022-12-25T22:27:45.716Z,7.10
2022-12-25T22:30:16.673Z,4.87
2022-12-25T22:32:46.274Z,5.73
2022-12-25T22:35:15.013Z,5.50
2022-12-25T22:37:44.411Z,4.87
2022-12-25T22:40:17.043Z,8.67
2022-12-25T22:42:45.033Z,4.50
2022-12-25T22:45:13.600Z,5.67
2022-12-25T22:47:42.273Z,12.90
2022-12-25T22:50:12.905Z,5.43
2022-12-25T22:52:41.464Z,4.87
2022-12-25T22:55:11.197Z,5.77
2022-12-25T22:57:40.441Z,6.50
2022-12-25T23:00:10.492Z,4.17
2022-12-25T23:02:38.613Z,4.93
2022-12-25T23:05:08.099Z,5.40
2022-12-25T23:07:36.059Z,5.07
2022-12-25T23:10:04.412Z,4.37
2022-12-25T23:12:49.841Z,4.47
2022-12-25T23:15:19.531Z,5.53
2022-12-25T23:18:05.033Z,3.40
2022-12-25T23:20:51.064Z,4.27
2022-12-25T23:23:36.833Z,3.43
2022-12-25T23:26:11.039Z,4.17
2022-12-25T23:29:00.158Z,3.80
2022-12-25T23:31:35.262Z,3.90
2022-12-25T23:34:04.765Z,4.00
2022-12-25T23:36:32.730Z,4.73
2022-12-25T23:39:08.619Z,4.57
2022-12-25T23:41:38.793Z,4.30
2022-12-25T23:44:06.944Z,6.63
2022-12-25T23:46:36.801Z,3.97
2022-12-25T23:49:05.676Z,3.53
2022-12-25T23:51:35.268Z,4.47
2022-12-25T23:54:03.331Z,3.60
2022-12-25T23:56:31.204Z,3.40
2022-12-25T23:58:59.086Z,4.50
